sensor_id;sensor_type;location;lat;lon;timestamp;pressure;altitude;pressure_sealevel;temperature;humidity
59545;BME280;45368;55.002;-1.592;2023-05-08T00:00:36;100977.00;;;12.08;59.53
59545;BME280;45368;55.002;-1.592;2023-05-08T00:03:04;100978.65;;;12.09;60.22
59545;BME280;45368;55.002;-1.592;2023-05-08T00:05:31;100979.03;;;11.66;61.43
59545;BME280;45368;55.002;-1.592;2023-05-08T00:07:58;100976.45;;;11.39;62.03
59545;BME280;45368;55.002;-1.592;2023-05-08T00:10:25;100976.86;;;12.21;61.06
59545;BME280;45368;55.002;-1.592;2023-05-08T00:12:52;100979.73;;;11.98;61.41
59545;BME280;45368;55.002;-1.592;2023-05-08T00:15:26;100973.51;;;11.70;61.95
59545;BME280;45368;55.002;-1.592;2023-05-08T00:17:53;100973.57;;;11.64;62.89
59545;BME280;45368;55.002;-1.592;2023-05-08T00:20:24;100976.49;;;11.74;61.97
59545;BME280;45368;55.002;-1.592;2023-05-08T00:22:51;100976.12;;;11.86;62.54
59545;BME280;45368;55.002;-1.592;2023-05-08T00:25:20;100978.36;;;11.26;64.36
59545;BME280;45368;55.002;-1.592;2023-05-08T00:27:48;100965.47;;;12.76;60.47
59545;BME280;45368;55.002;-1.592;2023-05-08T00:30:15;100967.47;;;12.41;61.18
59545;BME280;45368;55.002;-1.592;2023-05-08T00:32:43;100967.15;;;12.02;61.67
59545;BME280;45368;55.002;-1.592;2023-05-08T00:35:10;100961.98;;;12.54;60.36
59545;BME280;45368;55.002;-1.592;2023-05-08T00:37:37;100961.41;;;12.34;60.95
59545;BME280;45368;55.002;-1.592;2023-05-08T00:40:05;100957.08;;;12.25;60.87
59545;BME280;45368;55.002;-1.592;2023-05-08T00:42:32;100954.78;;;11.81;61.64
59545;BME280;45368;55.002;-1.592;2023-05-08T00:44:59;100946.13;;;12.09;61.25
59545;BME280;45368;55.002;-1.592;2023-05-08T00:47:27;100943.73;;;13.21;58.04
59545;BME280;45368;55.002;-1.592;2023-05-08T00:49:56;100944.40;;;13.75;56.51
59545;BME280;45368;55.002;-1.592;2023-05-08T00:52:25;100947.08;;;12.52;59.32
59545;BME280;45368;55.002;-1.592;2023-05-08T00:54:54;100940.24;;;13.48;57.60
59545;BME280;45368;55.002;-1.592;2023-05-08T00:57:21;100936.59;;;12.77;57.75
59545;BME280;45368;55.002;-1.592;2023-05-08T00:59:49;100936.62;;;13.52;57.02
59545;BME280;45368;55.002;-1.592;2023-05-08T01:02:17;100935.06;;;14.30;54.63
59545;BME280;45368;55.002;-1.592;2023-05-08T01:04:45;100937.61;;;13.97;55.20
59545;BME280;45368;55.002;-1.592;2023-05-08T01:07:14;100936.98;;;13.38;55.88
59545;BME280;45368;55.002;-1.592;2023-05-08T01:09:45;100931.85;;;15.08;53.12
59545;BME280;45368;55.002;-1.592;2023-05-08T01:12:19;100936.32;;;12.88;56.97
59545;BME280;45368;55.002;-1.592;2023-05-08T01:15:01;100933.64;;;12.82;57.56
59545;BME280;45368;55.002;-1.592;2023-05-08T01:17:42;100932.39;;;13.12;57.15
59545;BME280;45368;55.002;-1.592;2023-05-08T01:20:22;100929.23;;;12.77;57.77
59545;BME280;45368;55.002;-1.592;2023-05-08T01:23:16;100927.50;;;13.02;57.69
59545;BME280;45368;55.002;-1.592;2023-05-08T01:26:07;100924.45;;;13.60;56.44
59545;BME280;45368;55.002;-1.592;2023-05-08T01:29:34;100922.50;;;14.44;55.23
59545;BME280;45368;55.002;-1.592;2023-05-08T01:32:14;100918.17;;;15.19;53.15
59545;BME280;45368;55.002;-1.592;2023-05-08T01:34:53;100914.56;;;15.79;51.98
59545;BME280;45368;55.002;-1.592;2023-05-08T01:37:28;100917.36;;;14.36;53.55
59545;BME280;45368;55.002;-1.592;2023-05-08T01:40:07;100917.51;;;12.82;57.23
59545;BME280;45368;55.002;-1.592;2023-05-08T01:42:45;100920.82;;;12.66;57.91
59545;BME280;45368;55.002;-1.592;2023-05-08T01:45:19;100913.73;;;12.09;58.52
59545;BME280;45368;55.002;-1.592;2023-05-08T01:47:55;100912.07;;;12.29;59.03
59545;BME280;45368;55.002;-1.592;2023-05-08T01:50:32;100911.51;;;12.81;57.80
59545;BME280;45368;55.002;-1.592;2023-05-08T01:53:06;100906.95;;;12.80;56.98
59545;BME280;45368;55.002;-1.592;2023-05-08T01:55:35;100909.07;;;12.46;58.46
59545;BME280;45368;55.002;-1.592;2023-05-08T01:58:07;100912.97;;;12.81;57.79
59545;BME280;45368;55.002;-1.592;2023-05-08T02:00:37;100913.88;;;13.27;56.73
59545;BME280;45368;55.002;-1.592;2023-05-08T02:03:07;100913.24;;;13.62;55.83
59545;BME280;45368;55.002;-1.592;2023-05-08T02:05:36;100916.15;;;13.49;55.96
59545;BME280;45368;55.002;-1.592;2023-05-08T02:08:04;100917.70;;;12.43;57.23
59545;BME280;45368;55.002;-1.592;2023-05-08T02:10:33;100913.51;;;12.47;57.48
59545;BME280;45368;55.002;-1.592;2023-05-08T02:13:02;100900.95;;;13.11;56.20
59545;BME280;45368;55.002;-1.592;2023-05-08T02:15:31;100888.21;;;13.57;54.96
59545;BME280;45368;55.002;-1.592;2023-05-08T02:17:59;100890.66;;;12.83;56.60
59545;BME280;45368;55.002;-1.592;2023-05-08T02:20:27;100887.40;;;12.94;56.60
59545;BME280;45368;55.002;-1.592;2023-05-08T02:22:56;100884.75;;;12.71;55.86
59545;BME280;45368;55.002;-1.592;2023-05-08T02:25:25;100888.02;;;12.58;56.48
59545;BME280;45368;55.002;-1.592;2023-05-08T02:27:57;100882.40;;;13.63;54.92
59545;BME280;45368;55.002;-1.592;2023-05-08T02:30:25;100881.21;;;13.67;55.22
59545;BME280;45368;55.002;-1.592;2023-05-08T02:32:55;100882.73;;;13.71;54.25
59545;BME280;45368;55.002;-1.592;2023-05-08T02:35:23;100885.87;;;13.13;56.63
59545;BME280;45368;55.002;-1.592;2023-05-08T02:37:54;100881.21;;;13.25;56.40
59545;BME280;45368;55.002;-1.592;2023-05-08T02:40:25;100875.43;;;13.77;55.47
59545;BME280;45368;55.002;-1.592;2023-05-08T02:42:54;100875.85;;;13.31;56.41
59545;BME280;45368;55.002;-1.592;2023-05-08T02:45:22;100873.06;;;13.61;55.26
59545;BME280;45368;55.002;-1.592;2023-05-08T02:47:55;100875.60;;;13.70;54.75
59545;BME280;45368;55.002;-1.592;2023-05-08T02:50:29;100867.96;;;14.08;53.96
59545;BME280;45368;55.002;-1.592;2023-05-08T02:53:03;100869.65;;;13.37;55.35
59545;BME280;45368;55.002;-1.592;2023-05-08T02:55:38;100866.54;;;13.13;56.53
59545;BME280;45368;55.002;-1.592;2023-05-08T02:58:13;100863.36;;;14.06;54.08
59545;BME280;45368;55.002;-1.592;2023-05-08T03:00:47;100856.15;;;14.04;54.56
59545;BME280;45368;55.002;-1.592;2023-05-08T03:03:21;100856.89;;;13.16;56.07
59545;BME280;45368;55.002;-1.592;2023-05-08T03:05:52;100847.83;;;12.90;56.42
59545;BME280;45368;55.002;-1.592;2023-05-08T03:08:24;100845.31;;;13.62;55.63
59545;BME280;45368;55.002;-1.592;2023-05-08T03:10:56;100841.70;;;13.06;56.20
59545;BME280;45368;55.002;-1.592;2023-05-08T03:13:27;100838.48;;;13.34;56.06
59545;BME280;45368;55.002;-1.592;2023-05-08T03:15:59;100837.34;;;12.59;57.99
59545;BME280;45368;55.002;-1.592;2023-05-08T03:18:31;100837.54;;;12.28;58.67
59545;BME280;45368;55.002;-1.592;2023-05-08T03:20:59;100832.38;;;12.88;57.27
59545;BME280;45368;55.002;-1.592;2023-05-08T03:23:28;100830.77;;;12.86;56.80
59545;BME280;45368;55.002;-1.592;2023-05-08T03:25:58;100824.10;;;13.64;55.62
59545;BME280;45368;55.002;-1.592;2023-05-08T03:28:27;100823.51;;;13.42;55.53
59545;BME280;45368;55.002;-1.592;2023-05-08T03:30:55;100820.13;;;12.83;56.42
59545;BME280;45368;55.002;-1.592;2023-05-08T03:33:23;100811.77;;;13.49;55.39
59545;BME280;45368;55.002;-1.592;2023-05-08T03:35:53;100806.49;;;14.11;54.79
59545;BME280;45368;55.002;-1.592;2023-05-08T03:38:23;100806.25;;;13.08;56.70
59545;BME280;45368;55.002;-1.592;2023-05-08T03:40:51;100802.03;;;14.26;54.84
59545;BME280;45368;55.002;-1.592;2023-05-08T03:43:20;100798.95;;;13.48;56.19
59545;BME280;45368;55.002;-1.592;2023-05-08T03:45:47;100793.69;;;14.32;54.43
59545;BME280;45368;55.002;-1.592;2023-05-08T03:48:17;100796.07;;;12.90;57.56
59545;BME280;45368;55.002;-1.592;2023-05-08T03:50:45;100794.97;;;13.41;56.69
59545;BME280;45368;55.002;-1.592;2023-05-08T03:53:13;100790.81;;;13.15;56.97
59545;BME280;45368;55.002;-1.592;2023-05-08T03:55:40;100785.91;;;12.11;59.88
59545;BME280;45368;55.002;-1.592;2023-05-08T03:58:19;100786.65;;;11.77;60.67
59545;BME280;45368;55.002;-1.592;2023-05-08T04:00:58;100782.81;;;12.52;59.29
59545;BME280;45368;55.002;-1.592;2023-05-08T04:03:36;100782.86;;;12.03;60.36
59545;BME280;45368;55.002;-1.592;2023-05-08T04:06:11;100780.90;;;12.70;59.31
59545;BME280;45368;55.002;-1.592;2023-05-08T04:08:43;100777.14;;;12.28;60.35
59545;BME280;45368;55.002;-1.592;2023-05-08T04:11:23;100774.59;;;12.55;59.21
59545;BME280;45368;55.002;-1.592;2023-05-08T04:14:00;100771.65;;;12.22;60.04
59545;BME280;45368;55.002;-1.592;2023-05-08T04:16:31;100773.08;;;11.77;61.40
59545;BME280;45368;55.002;-1.592;2023-05-08T04:19:10;100773.08;;;11.66;62.51
59545;BME280;45368;55.002;-1.592;2023-05-08T04:21:42;100764.98;;;11.81;62.37
59545;BME280;45368;55.002;-1.592;2023-05-08T04:24:13;100762.11;;;12.79;59.97
59545;BME280;45368;55.002;-1.592;2023-05-08T04:26:42;100765.66;;;11.74;62.26
59545;BME280;45368;55.002;-1.592;2023-05-08T04:29:10;100764.33;;;12.18;61.20
59545;BME280;45368;55.002;-1.592;2023-05-08T04:31:39;100760.40;;;12.91;58.58
59545;BME280;45368;55.002;-1.592;2023-05-08T04:34:07;100760.84;;;12.88;58.77
59545;BME280;45368;55.002;-1.592;2023-05-08T04:36:35;100762.04;;;12.64;59.41
59545;BME280;45368;55.002;-1.592;2023-05-08T04:39:02;100759.25;;;13.10;58.53
59545;BME280;45368;55.002;-1.592;2023-05-08T04:41:29;100756.87;;;13.05;59.11
59545;BME280;45368;55.002;-1.592;2023-05-08T04:43:57;100758.35;;;13.30;58.41
59545;BME280;45368;55.002;-1.592;2023-05-08T04:46:25;100760.86;;;13.11;58.83
59545;BME280;45368;55.002;-1.592;2023-05-08T04:48:53;100760.44;;;13.64;57.73
59545;BME280;45368;55.002;-1.592;2023-05-08T04:51:20;100758.97;;;12.75;59.29
59545;BME280;45368;55.002;-1.592;2023-05-08T04:53:47;100765.08;;;11.77;62.18
59545;BME280;45368;55.002;-1.592;2023-05-08T04:56:14;100764.38;;;11.79;63.10
59545;BME280;45368;55.002;-1.592;2023-05-08T04:58:41;100759.77;;;12.81;60.47
59545;BME280;45368;55.002;-1.592;2023-05-08T05:01:08;100752.86;;;12.66;60.96
59545;BME280;45368;55.002;-1.592;2023-05-08T05:03:36;100758.00;;;12.34;61.92
59545;BME280;45368;55.002;-1.592;2023-05-08T05:06:03;100755.98;;;12.82;61.50
59545;BME280;45368;55.002;-1.592;2023-05-08T05:08:30;100750.68;;;12.66;62.14
59545;BME280;45368;55.002;-1.592;2023-05-08T05:10:57;100751.47;;;12.60;62.12
59545;BME280;45368;55.002;-1.592;2023-05-08T05:13:24;100749.56;;;11.97;63.42
59545;BME280;45368;55.002;-1.592;2023-05-08T05:15:51;100750.28;;;11.89;63.77
59545;BME280;45368;55.002;-1.592;2023-05-08T05:18:22;100751.25;;;11.85;64.23
59545;BME280;45368;55.002;-1.592;2023-05-08T05:20:49;100754.21;;;12.25;63.15
59545;BME280;45368;55.002;-1.592;2023-05-08T05:23:17;100750.05;;;12.92;61.58
59545;BME280;45368;55.002;-1.592;2023-05-08T05:25:44;100755.23;;;12.31;62.16
59545;BME280;45368;55.002;-1.592;2023-05-08T05:28:11;100754.13;;;12.84;61.26
59545;BME280;45368;55.002;-1.592;2023-05-08T05:31:44;100756.99;;;12.17;62.93
59545;BME280;45368;55.002;-1.592;2023-05-08T05:34:15;100753.98;;;13.07;61.28
59545;BME280;45368;55.002;-1.592;2023-05-08T05:36:42;100759.98;;;12.34;63.48
59545;BME280;45368;55.002;-1.592;2023-05-08T05:39:10;100759.80;;;13.01;61.89
59545;BME280;45368;55.002;-1.592;2023-05-08T05:41:37;100761.35;;;12.55;62.92
59545;BME280;45368;55.002;-1.592;2023-05-08T05:44:04;100764.12;;;13.22;61.64
59545;BME280;45368;55.002;-1.592;2023-05-08T05:46:31;100770.66;;;12.76;63.16
59545;BME280;45368;55.002;-1.592;2023-05-08T05:48:58;100765.05;;;13.63;61.54
59545;BME280;45368;55.002;-1.592;2023-05-08T05:51:25;100765.74;;;12.42;63.55
59545;BME280;45368;55.002;-1.592;2023-05-08T05:53:53;100763.54;;;13.17;62.29
59545;BME280;45368;55.002;-1.592;2023-05-08T05:56:20;100761.42;;;13.96;61.09
59545;BME280;45368;55.002;-1.592;2023-05-08T05:58:47;100758.96;;;13.48;61.34
59545;BME280;45368;55.002;-1.592;2023-05-08T06:01:14;100754.49;;;14.04;60.38
59545;BME280;45368;55.002;-1.592;2023-05-08T06:03:41;100755.17;;;13.87;60.89
59545;BME280;45368;55.002;-1.592;2023-05-08T06:06:08;100758.78;;;12.97;62.59
59545;BME280;45368;55.002;-1.592;2023-05-08T06:08:35;100752.71;;;12.28;64.21
59545;BME280;45368;55.002;-1.592;2023-05-08T06:11:02;100749.56;;;12.10;65.46
59545;BME280;45368;55.002;-1.592;2023-05-08T06:13:29;100748.76;;;12.47;64.18
59545;BME280;45368;55.002;-1.592;2023-05-08T06:15:56;100743.44;;;12.85;63.14
59545;BME280;45368;55.002;-1.592;2023-05-08T06:18:24;100745.10;;;12.72;64.41
59545;BME280;45368;55.002;-1.592;2023-05-08T06:20:55;100745.05;;;12.87;63.72
59545;BME280;45368;55.002;-1.592;2023-05-08T06:23:22;100749.90;;;11.63;66.34
59545;BME280;45368;55.002;-1.592;2023-05-08T06:25:50;100753.65;;;12.29;65.47
59545;BME280;45368;55.002;-1.592;2023-05-08T06:28:17;100747.01;;;11.96;66.21
59545;BME280;45368;55.002;-1.592;2023-05-08T06:30:44;100746.42;;;12.00;66.36
59545;BME280;45368;55.002;-1.592;2023-05-08T06:33:17;100744.86;;;12.51;65.19
59545;BME280;45368;55.002;-1.592;2023-05-08T06:35:45;100746.59;;;12.40;66.59
59545;BME280;45368;55.002;-1.592;2023-05-08T06:38:12;100755.49;;;11.41;69.69
59545;BME280;45368;55.002;-1.592;2023-05-08T06:40:41;100753.98;;;11.48;69.89
59545;BME280;45368;55.002;-1.592;2023-05-08T06:43:08;100753.94;;;11.80;68.37
59545;BME280;45368;55.002;-1.592;2023-05-08T06:45:36;100754.95;;;11.84;67.58
59545;BME280;45368;55.002;-1.592;2023-05-08T06:48:04;100746.84;;;12.18;67.46
59545;BME280;45368;55.002;-1.592;2023-05-08T06:50:31;100743.84;;;11.91;66.88
59545;BME280;45368;55.002;-1.592;2023-05-08T06:52:58;100740.63;;;12.72;65.34
59545;BME280;45368;55.002;-1.592;2023-05-08T06:55:25;100740.93;;;12.66;64.83
59545;BME280;45368;55.002;-1.592;2023-05-08T06:57:53;100748.31;;;12.32;65.94
59545;BME280;45368;55.002;-1.592;2023-05-08T07:00:20;100744.87;;;12.48;65.94
59545;BME280;45368;55.002;-1.592;2023-05-08T07:02:47;100750.03;;;12.22;66.46
59545;BME280;45368;55.002;-1.592;2023-05-08T07:05:14;100752.96;;;11.79;67.35
59545;BME280;45368;55.002;-1.592;2023-05-08T07:07:41;100753.53;;;11.65;67.50
59545;BME280;45368;55.002;-1.592;2023-05-08T07:10:09;100749.17;;;12.35;66.77
59545;BME280;45368;55.002;-1.592;2023-05-08T07:12:36;100746.42;;;12.93;65.70
59545;BME280;45368;55.002;-1.592;2023-05-08T07:15:04;100746.94;;;13.11;64.71
59545;BME280;45368;55.002;-1.592;2023-05-08T07:17:31;100743.62;;;13.87;62.57
59545;BME280;45368;55.002;-1.592;2023-05-08T07:19:58;100744.79;;;13.91;62.43
59545;BME280;45368;55.002;-1.592;2023-05-08T07:22:25;100748.20;;;13.77;62.61
59545;BME280;45368;55.002;-1.592;2023-05-08T07:24:52;100745.54;;;14.16;61.75
59545;BME280;45368;55.002;-1.592;2023-05-08T07:27:19;100739.24;;;14.68;60.48
59545;BME280;45368;55.002;-1.592;2023-05-08T07:29:46;100735.55;;;14.85;59.73
59545;BME280;45368;55.002;-1.592;2023-05-08T07:32:12;100739.99;;;13.51;62.46
59545;BME280;45368;55.002;-1.592;2023-05-08T07:34:40;100738.93;;;13.51;63.34
59545;BME280;45368;55.002;-1.592;2023-05-08T07:37:07;100730.81;;;14.30;61.99
59545;BME280;45368;55.002;-1.592;2023-05-08T07:39:34;100730.12;;;13.57;62.72
59545;BME280;45368;55.002;-1.592;2023-05-08T07:42:02;100727.77;;;13.82;62.14
59545;BME280;45368;55.002;-1.592;2023-05-08T07:44:30;100724.67;;;14.24;61.38
59545;BME280;45368;55.002;-1.592;2023-05-08T07:46:58;100723.27;;;14.37;61.19
59545;BME280;45368;55.002;-1.592;2023-05-08T07:49:25;100721.85;;;14.52;60.94
59545;BME280;45368;55.002;-1.592;2023-05-08T07:51:53;100723.74;;;13.98;62.53
59545;BME280;45368;55.002;-1.592;2023-05-08T07:54:21;100725.20;;;14.24;63.02
59545;BME280;45368;55.002;-1.592;2023-05-08T07:56:48;100718.57;;;13.86;63.80
59545;BME280;45368;55.002;-1.592;2023-05-08T07:59:15;100717.46;;;13.15;65.01
59545;BME280;45368;55.002;-1.592;2023-05-08T08:01:42;100712.77;;;13.20;66.17
59545;BME280;45368;55.002;-1.592;2023-05-08T08:04:10;100710.40;;;13.00;66.05
59545;BME280;45368;55.002;-1.592;2023-05-08T08:06:37;100714.88;;;12.54;67.97
59545;BME280;45368;55.002;-1.592;2023-05-08T08:09:04;100718.83;;;12.38;67.72
59545;BME280;45368;55.002;-1.592;2023-05-08T08:11:31;100723.29;;;12.76;66.12
59545;BME280;45368;55.002;-1.592;2023-05-08T08:13:59;100727.73;;;12.57;67.05
59545;BME280;45368;55.002;-1.592;2023-05-08T08:16:26;100724.70;;;12.72;66.71
59545;BME280;45368;55.002;-1.592;2023-05-08T08:18:53;100724.18;;;11.99;69.63
59545;BME280;45368;55.002;-1.592;2023-05-08T08:21:21;100721.63;;;11.66;70.01
59545;BME280;45368;55.002;-1.592;2023-05-08T08:23:48;100721.95;;;10.80;71.82
59545;BME280;45368;55.002;-1.592;2023-05-08T08:26:15;100721.79;;;11.08;73.70
59545;BME280;45368;55.002;-1.592;2023-05-08T08:28:45;100717.72;;;10.98;73.29
59545;BME280;45368;55.002;-1.592;2023-05-08T08:31:12;100715.02;;;10.65;74.51
59545;BME280;45368;55.002;-1.592;2023-05-08T08:33:39;100711.47;;;10.62;75.26
59545;BME280;45368;55.002;-1.592;2023-05-08T08:36:12;100713.05;;;10.57;75.61
59545;BME280;45368;55.002;-1.592;2023-05-08T08:38:39;100713.71;;;10.57;75.43
59545;BME280;45368;55.002;-1.592;2023-05-08T08:41:06;100713.63;;;11.12;74.11
59545;BME280;45368;55.002;-1.592;2023-05-08T08:43:34;100711.32;;;10.33;75.08
59545;BME280;45368;55.002;-1.592;2023-05-08T08:46:02;100711.82;;;10.59;74.03
59545;BME280;45368;55.002;-1.592;2023-05-08T08:48:37;100714.05;;;10.11;75.19
59545;BME280;45368;55.002;-1.592;2023-05-08T08:51:20;100704.71;;;10.88;73.72
59545;BME280;45368;55.002;-1.592;2023-05-08T08:53:54;100703.24;;;10.46;74.23
59545;BME280;45368;55.002;-1.592;2023-05-08T08:56:24;100701.87;;;10.77;73.90
59545;BME280;45368;55.002;-1.592;2023-05-08T08:58:55;100707.56;;;9.94;77.07
59545;BME280;45368;55.002;-1.592;2023-05-08T09:01:23;100700.89;;;9.73;76.40
59545;BME280;45368;55.002;-1.592;2023-05-08T09:03:51;100703.51;;;9.69;77.71
59545;BME280;45368;55.002;-1.592;2023-05-08T09:06:19;100698.88;;;10.19;76.42
59545;BME280;45368;55.002;-1.592;2023-05-08T09:08:46;100693.72;;;10.38;75.55
59545;BME280;45368;55.002;-1.592;2023-05-08T09:11:13;100689.80;;;11.35;73.04
59545;BME280;45368;55.002;-1.592;2023-05-08T09:13:40;100689.05;;;11.03;73.70
59545;BME280;45368;55.002;-1.592;2023-05-08T09:16:07;100687.72;;;11.21;73.25
59545;BME280;45368;55.002;-1.592;2023-05-08T09:18:34;100687.28;;;10.36;75.07
59545;BME280;45368;55.002;-1.592;2023-05-08T09:21:02;100683.79;;;9.99;77.83
59545;BME280;45368;55.002;-1.592;2023-05-08T09:23:31;100682.81;;;10.45;77.44
59545;BME280;45368;55.002;-1.592;2023-05-08T09:25:58;100684.03;;;10.19;78.00
59545;BME280;45368;55.002;-1.592;2023-05-08T09:28:25;100679.96;;;10.12;76.82
59545;BME280;45368;55.002;-1.592;2023-05-08T09:30:54;100677.99;;;10.10;77.65
59545;BME280;45368;55.002;-1.592;2023-05-08T09:33:23;100681.05;;;10.29;77.27
59545;BME280;45368;55.002;-1.592;2023-05-08T09:35:51;100678.51;;;10.10;77.87
59545;BME280;45368;55.002;-1.592;2023-05-08T09:38:38;100678.68;;;10.54;76.81
59545;BME280;45368;55.002;-1.592;2023-05-08T09:41:06;100677.53;;;9.72;79.31
59545;BME280;45368;55.002;-1.592;2023-05-08T09:43:36;100670.44;;;10.63;77.09
59545;BME280;45368;55.002;-1.592;2023-05-08T09:46:23;100671.23;;;9.90;79.33
59545;BME280;45368;55.002;-1.592;2023-05-08T09:48:51;100669.14;;;10.59;78.32
59545;BME280;45368;55.002;-1.592;2023-05-08T09:52:29;100665.38;;;10.70;78.64
59545;BME280;45368;55.002;-1.592;2023-05-08T09:55:03;100665.82;;;10.41;78.63
59545;BME280;45368;55.002;-1.592;2023-05-08T09:57:31;100667.29;;;10.81;77.91
59545;BME280;45368;55.002;-1.592;2023-05-08T10:03:11;100661.61;;;10.70;80.46
59545;BME280;45368;55.002;-1.592;2023-05-08T10:05:39;100661.56;;;10.51;78.63
59545;BME280;45368;55.002;-1.592;2023-05-08T10:08:21;100656.81;;;10.29;79.90
59545;BME280;45368;55.002;-1.592;2023-05-08T10:10:48;100650.08;;;11.16;77.10
59545;BME280;45368;55.002;-1.592;2023-05-08T10:13:16;100644.81;;;11.48;76.14
59545;BME280;45368;55.002;-1.592;2023-05-08T10:15:43;100648.33;;;11.04;76.63
59545;BME280;45368;55.002;-1.592;2023-05-08T10:18:12;100650.95;;;10.55;78.66
59545;BME280;45368;55.002;-1.592;2023-05-08T10:20:42;100647.96;;;10.79;77.80
59545;BME280;45368;55.002;-1.592;2023-05-08T10:23:14;100644.32;;;10.26;78.62
59545;BME280;45368;55.002;-1.592;2023-05-08T10:25:44;100645.77;;;10.53;79.41
59545;BME280;45368;55.002;-1.592;2023-05-08T10:28:16;100646.51;;;11.27;76.88
59545;BME280;45368;55.002;-1.592;2023-05-08T10:30:47;100649.59;;;11.42;74.67
59545;BME280;45368;55.002;-1.592;2023-05-08T10:33:19;100650.25;;;10.56;78.57
59545;BME280;45368;55.002;-1.592;2023-05-08T10:35:47;100647.37;;;10.85;78.50
59545;BME280;45368;55.002;-1.592;2023-05-08T10:38:15;100650.51;;;11.01;78.63
59545;BME280;45368;55.002;-1.592;2023-05-08T10:40:43;100649.15;;;11.06;76.55
59545;BME280;45368;55.002;-1.592;2023-05-08T10:43:11;100655.66;;;10.54;78.99
59545;BME280;45368;55.002;-1.592;2023-05-08T10:45:38;100649.62;;;11.67;75.25
59545;BME280;45368;55.002;-1.592;2023-05-08T10:48:12;100647.34;;;11.00;76.93
59545;BME280;45368;55.002;-1.592;2023-05-08T10:50:56;100644.70;;;12.10;73.23
59545;BME280;45368;55.002;-1.592;2023-05-08T10:53:35;100645.08;;;11.28;75.26
59545;BME280;45368;55.002;-1.592;2023-05-08T10:56:04;100647.16;;;11.44;75.26
59545;BME280;45368;55.002;-1.592;2023-05-08T10:58:33;100649.48;;;10.99;75.99
59545;BME280;45368;55.002;-1.592;2023-05-08T11:01:17;100650.20;;;10.91;77.45
59545;BME280;45368;55.002;-1.592;2023-05-08T11:03:47;100648.20;;;11.82;74.85
59545;BME280;45368;55.002;-1.592;2023-05-08T11:06:14;100646.32;;;11.32;77.05
59545;BME280;45368;55.002;-1.592;2023-05-08T11:08:46;100645.40;;;11.70;75.97
59545;BME280;45368;55.002;-1.592;2023-05-08T11:11:23;100649.88;;;11.61;77.01
59545;BME280;45368;55.002;-1.592;2023-05-08T11:13:54;100651.54;;;10.48;80.52
59545;BME280;45368;55.002;-1.592;2023-05-08T11:17:04;100647.66;;;10.92;80.10
59545;BME280;45368;55.002;-1.592;2023-05-08T11:19:31;100646.03;;;10.89;80.24
59545;BME280;45368;55.002;-1.592;2023-05-08T11:22:21;100643.58;;;10.89;80.40
59545;BME280;45368;55.002;-1.592;2023-05-08T11:24:54;100644.92;;;10.54;82.26
59545;BME280;45368;55.002;-1.592;2023-05-08T11:27:40;100642.32;;;11.39;79.15
59545;BME280;45368;55.002;-1.592;2023-05-08T11:30:36;100642.65;;;11.06;79.00
59545;BME280;45368;55.002;-1.592;2023-05-08T11:33:17;100642.94;;;10.81;80.54
59545;BME280;45368;55.002;-1.592;2023-05-08T11:35:50;100637.51;;;11.21;79.96
59545;BME280;45368;55.002;-1.592;2023-05-08T11:38:20;100635.55;;;11.62;78.78
59545;BME280;45368;55.002;-1.592;2023-05-08T11:40:53;100635.41;;;11.43;79.14
59545;BME280;45368;55.002;-1.592;2023-05-08T11:43:32;100631.65;;;11.60;78.93
59545;BME280;45368;55.002;-1.592;2023-05-08T11:46:06;100632.25;;;11.41;79.07
59545;BME280;45368;55.002;-1.592;2023-05-08T11:48:34;100628.21;;;11.47;78.90
59545;BME280;45368;55.002;-1.592;2023-05-08T11:51:02;100626.90;;;10.81;80.64
59545;BME280;45368;55.002;-1.592;2023-05-08T11:53:30;100623.21;;;11.24;79.93
59545;BME280;45368;55.002;-1.592;2023-05-08T11:55:58;100626.21;;;11.62;78.65
59545;BME280;45368;55.002;-1.592;2023-05-08T11:58:26;100626.65;;;11.67;79.14
59545;BME280;45368;55.002;-1.592;2023-05-08T12:00:54;100625.15;;;12.56;75.61
59545;BME280;45368;55.002;-1.592;2023-05-08T12:03:22;100620.59;;;12.70;74.88
59545;BME280;45368;55.002;-1.592;2023-05-08T12:05:50;100620.41;;;12.91;73.99
59545;BME280;45368;55.002;-1.592;2023-05-08T12:08:26;100620.99;;;12.15;76.34
59545;BME280;45368;55.002;-1.592;2023-05-08T12:10:54;100620.91;;;12.20;76.31
59545;BME280;45368;55.002;-1.592;2023-05-08T12:13:23;100616.35;;;11.84;77.57
59545;BME280;45368;55.002;-1.592;2023-05-08T12:15:52;100617.60;;;12.45;75.81
59545;BME280;45368;55.002;-1.592;2023-05-08T12:18:26;100618.12;;;11.95;76.29
59545;BME280;45368;55.002;-1.592;2023-05-08T12:20:56;100614.60;;;12.74;74.57
59545;BME280;45368;55.002;-1.592;2023-05-08T12:23:24;100620.28;;;12.34;74.17
59545;BME280;45368;55.002;-1.592;2023-05-08T12:25:52;100622.30;;;12.42;74.55
59545;BME280;45368;55.002;-1.592;2023-05-08T12:28:19;100621.45;;;12.63;74.76
59545;BME280;45368;55.002;-1.592;2023-05-08T12:30:47;100626.05;;;12.44;75.73
59545;BME280;45368;55.002;-1.592;2023-05-08T12:33:15;100623.61;;;11.95;76.79
59545;BME280;45368;55.002;-1.592;2023-05-08T12:35:42;100626.41;;;11.97;76.80
59545;BME280;45368;55.002;-1.592;2023-05-08T12:38:10;100630.08;;;11.86;80.39
59545;BME280;45368;55.002;-1.592;2023-05-08T12:40:40;100622.20;;;12.43;76.63
59545;BME280;45368;55.002;-1.592;2023-05-08T12:43:08;100616.68;;;11.77;78.97
59545;BME280;45368;55.002;-1.592;2023-05-08T12:45:38;100613.98;;;11.64;78.48
59545;BME280;45368;55.002;-1.592;2023-05-08T12:48:06;100607.60;;;12.16;79.14
59545;BME280;45368;55.002;-1.592;2023-05-08T12:50:34;100612.43;;;11.67;80.47
59545;BME280;45368;55.002;-1.592;2023-05-08T12:53:02;100611.58;;;11.37;80.41
59545;BME280;45368;55.002;-1.592;2023-05-08T12:55:32;100614.92;;;11.21;80.96
59545;BME280;45368;55.002;-1.592;2023-05-08T12:58:02;100612.16;;;12.16;78.00
59545;BME280;45368;55.002;-1.592;2023-05-08T13:00:39;100610.56;;;12.03;78.01